Time;durP1;ratioP1;P1;durP2;ratioP2;P2;SDS_P1;SDS_P2;PMS_P1;PMS_P2;Temp;Humidity;BMP_temperature;BMP_pressure;BME280_temperature;BME280_humidity;BME280_pressure;Samples;Min_cycle;Max_cycle;Signal;HPM_P1;HPM_P2
2023/07/21 00:01:00;;;;;;;2.63;1.97;;;;;;;20.18;nan;99000.78;4945766;28;20465;-77
2023/07/21 00:03:26;;;;;;;3.43;2.13;;;;;;;20.12;nan;99002.31;4946369;28;20513;-77
2023/07/21 00:05:51;;;;;;;2.55;2.20;;;;;;;20.11;nan;99001.47;4948370;28;20452;-76
2023/07/21 00:08:17;;;;;;;2.57;2.20;;;;;;;20.09;nan;98992.84;4947004;28;20276;-76
2023/07/21 00:10:46;;;;;;;2.83;1.93;;;;;;;20.11;nan;98996.13;4945515;28;20682;-76
2023/07/21 00:13:11;;;;;;;2.50;2.00;;;;;;;20.17;nan;98999.13;4946279;28;20215;-76
2023/07/21 00:15:37;;;;;;;4.17;2.03;;;;;;;20.23;nan;98990.44;4945570;28;20526;-76
2023/07/21 00:18:03;;;;;;;5.03;2.40;;;;;;;20.26;nan;98998.09;4942555;28;20685;-76
2023/07/21 00:20:29;;;;;;;2.83;1.90;;;;;;;20.24;nan;98994.75;4941798;28;20210;-76
2023/07/21 00:22:55;;;;;;;3.80;2.40;;;;;;;20.23;nan;98993.09;4943738;28;20465;-76
2023/07/21 00:25:20;;;;;;;1.97;1.40;;;;;;;20.20;nan;98996.09;4944258;28;20481;-76
2023/07/21 00:27:46;;;;;;;2.83;2.50;;;;;;;20.11;nan;98988.13;4944203;28;20224;-76
2023/07/21 00:30:13;;;;;;;6.87;2.10;;;;;;;20.01;nan;98987.53;4929618;28;20222;-76
2023/07/21 00:32:41;;;;;;;2.13;1.90;;;;;;;19.92;nan;98988.56;4941457;28;20276;-76
2023/07/21 00:35:08;;;;;;;3.30;2.17;;;;;;;19.85;nan;98990.28;4940245;28;20437;-77
2023/07/21 00:37:37;;;;;;;5.87;1.80;;;;;;;19.75;nan;98985.13;4937511;28;20448;-76
2023/07/21 00:40:04;;;;;;;1.87;1.67;;;;;;;19.70;nan;98989.31;4938472;28;20481;-76
2023/07/21 00:42:30;;;;;;;4.70;2.70;;;;;;;19.63;nan;98986.44;4942605;28;21059;-77
2023/07/21 00:44:59;;;;;;;2.30;2.10;;;;;;;19.60;nan;98986.81;4927458;28;20464;-76
2023/07/21 00:47:25;;;;;;;4.13;2.43;;;;;;;19.57;nan;98987.16;4918762;28;20450;-76
2023/07/21 00:49:52;;;;;;;3.70;1.97;;;;;;;19.55;nan;98982.00;4941047;28;20447;-76
2023/07/21 00:52:18;;;;;;;2.60;2.40;;;;;;;19.54;nan;98979.50;4938936;28;21339;-76
2023/07/21 00:54:47;;;;;;;2.20;2.00;;;;;;;19.52;nan;98984.97;4940348;28;20491;-76
2023/07/21 00:57:16;;;;;;;2.70;2.30;;;;;;;19.52;nan;98984.16;4942012;28;20575;-76
2023/07/21 00:59:41;;;;;;;2.00;1.77;;;;;;;19.54;nan;98982.16;4924357;28;20516;-76
2023/07/21 01:02:07;;;;;;;3.13;2.30;;;;;;;19.54;nan;98983.00;4939874;28;20450;-76
2023/07/21 01:04:33;;;;;;;3.42;2.20;;;;;;;19.52;nan;98976.16;4937462;28;20429;-76
2023/07/21 01:07:03;;;;;;;3.60;2.45;;;;;;;19.47;nan;98987.34;4940816;28;20954;-76
2023/07/21 01:09:30;;;;;;;4.13;2.23;;;;;;;19.36;nan;98985.03;4940720;28;20223;-76
2023/07/21 01:11:56;;;;;;;4.70;2.03;;;;;;;19.26;nan;98976.41;4939558;28;20475;-76
2023/07/21 01:14:25;;;;;;;2.50;2.23;;;;;;;19.19;nan;98982.38;4940102;28;20436;-76
2023/07/21 01:16:54;;;;;;;3.67;1.90;;;;;;;19.15;nan;98977.59;4942141;28;20433;-76
2023/07/21 01:19:22;;;;;;;2.77;2.10;;;;;;;19.09;nan;98976.44;4945316;28;20466;-76
2023/07/21 01:21:59;;;;;;;2.60;1.70;;;;;;;19.08;nan;98971.25;4941085;28;20568;-76
2023/07/21 01:24:49;;;;;;;2.53;2.23;;;;;;;19.14;nan;98973.25;4944803;28;20495;-76
2023/07/21 01:27:20;;;;;;;2.50;2.10;;;;;;;19.19;nan;98970.91;4933961;28;20498;-76
2023/07/21 01:29:46;;;;;;;4.23;2.40;;;;;;;19.24;nan;98971.22;4941768;28;20476;-76
2023/07/21 01:32:15;;;;;;;2.60;2.07;;;;;;;19.24;nan;98982.72;4927967;28;20479;-76
2023/07/21 01:34:42;;;;;;;2.80;2.03;;;;;;;19.20;nan;98976.06;4946374;28;20465;-76
2023/07/21 01:37:08;;;;;;;2.97;2.50;;;;;;;19.14;nan;98973.25;4948309;28;20625;-76
2023/07/21 01:39:36;;;;;;;3.07;2.20;;;;;;;19.07;nan;98966.94;4925368;28;20568;-76
2023/07/21 01:42:03;;;;;;;2.70;1.83;;;;;;;18.98;nan;98968.75;4944174;28;20843;-76
2023/07/21 01:44:29;;;;;;;2.10;1.90;;;;;;;18.90;nan;98966.09;4944798;28;20478;-76
2023/07/21 01:46:54;;;;;;;2.17;1.97;;;;;;;18.85;nan;98968.41;4945302;28;20482;-76
2023/07/21 01:49:20;;;;;;;2.37;1.80;;;;;;;18.78;nan;98969.09;4944710;28;20285;-76
2023/07/21 01:51:48;;;;;;;5.10;2.20;;;;;;;18.68;nan;98971.03;4945666;28;20231;-76
2023/07/21 01:54:36;;;;;;;3.67;2.90;;;;;;;18.64;nan;98968.91;4946076;28;20251;-76
2023/07/21 01:57:07;;;;;;;2.53;2.33;;;;;;;18.65;nan;98966.06;4943022;28;20483;-76
2023/07/21 01:59:33;;;;;;;2.27;2.07;;;;;;;18.67;nan;98963.25;4925974;28;23632;-76
2023/07/21 02:01:59;;;;;;;3.07;1.47;;;;;;;18.70;nan;98963.75;4937241;28;20486;-76
2023/07/21 02:04:25;;;;;;;4.37;2.10;;;;;;;18.74;nan;98962.47;4942577;28;20479;-76
2023/07/21 02:06:51;;;;;;;4.10;2.50;;;;;;;18.79;nan;98969.91;4926127;28;20443;-76
2023/07/21 02:09:19;;;;;;;3.97;2.17;;;;;;;18.80;nan;98966.28;4925412;28;20221;-76
2023/07/21 02:11:45;;;;;;;2.17;1.97;;;;;;;18.80;nan;98955.63;4939495;28;20570;-76
2023/07/21 02:14:30;;;;;;;5.40;2.20;;;;;;;18.81;nan;98949.31;4921168;28;20470;-76
2023/07/21 02:16:56;;;;;;;4.50;2.60;;;;;;;18.83;nan;98954.47;4943187;28;20477;-76
2023/07/21 02:19:22;;;;;;;2.27;1.80;;;;;;;18.78;nan;98958.44;4929909;28;20709;-76
2023/07/21 02:21:47;;;;;;;3.50;1.93;;;;;;;18.73;nan;98960.75;4938084;28;20222;-76
2023/07/21 02:24:12;;;;;;;2.10;1.90;;;;;;;18.66;nan;98958.91;4944059;28;20217;-76
2023/07/21 02:26:38;;;;;;;2.17;1.97;;;;;;;18.55;nan;98955.59;4924295;28;20322;-76
2023/07/21 02:29:03;;;;;;;2.87;2.60;;;;;;;18.44;nan;98949.75;4938570;28;20213;-76
2023/07/21 02:31:29;;;;;;;2.00;1.80;;;;;;;18.36;nan;98947.91;4939908;28;20945;-76
2023/07/21 02:33:54;;;;;;;4.00;2.60;;;;;;;18.32;nan;98944.75;4941202;28;20741;-75
2023/07/21 02:36:20;;;;;;;4.90;2.10;;;;;;;18.31;nan;98943.09;4942625;28;20225;-76
2023/07/21 02:38:46;;;;;;;4.47;2.30;;;;;;;18.32;nan;98947.41;4944033;28;21391;-76
2023/07/21 02:41:11;;;;;;;4.60;2.17;;;;;;;18.32;nan;98947.41;4940852;28;20234;-76
2023/07/21 02:43:37;;;;;;;3.67;2.50;;;;;;;18.35;nan;98946.25;4939495;28;20225;-76
2023/07/21 02:46:04;;;;;;;2.70;2.50;;;;;;;18.40;nan;98937.78;4941501;28;20223;-76
2023/07/21 02:48:31;;;;;;;3.10;2.63;;;;;;;18.44;nan;98937.28;4926877;28;20233;-76
2023/07/21 02:50:58;;;;;;;3.20;2.30;;;;;;;18.43;nan;98935.63;4925506;28;20494;-76
2023/07/21 02:53:24;;;;;;;3.70;2.90;;;;;;;18.34;nan;98948.06;4924207;28;20491;-76
2023/07/21 02:55:57;;;;;;;2.67;2.47;;;;;;;18.21;nan;98937.09;4940939;28;20463;-76
2023/07/21 02:58:26;;;;;;;2.90;2.07;;;;;;;18.07;nan;98943.03;4944519;28;20584;-77
2023/07/21 03:00:54;;;;;;;2.83;1.83;;;;;;;17.94;nan;98950.63;4942315;28;20519;-76
2023/07/21 03:03:25;;;;;;;2.50;2.10;;;;;;;17.80;nan;98950.25;4942693;28;21000;-76
2023/07/21 03:05:54;;;;;;;3.23;2.60;;;;;;;17.73;nan;98954.50;4940248;28;20541;-76
2023/07/21 03:08:26;;;;;;;3.33;1.73;;;;;;;17.70;nan;98949.50;4940977;28;21021;-76
2023/07/21 03:10:55;;;;;;;3.20;2.50;;;;;;;17.68;nan;98962.09;4939850;28;20460;-76
2023/07/21 03:13:24;;;;;;;3.50;2.40;;;;;;;17.62;nan;98957.44;4940661;28;20440;-76
2023/07/21 03:15:50;;;;;;;2.37;1.70;;;;;;;17.55;nan;98961.69;4924519;28;20587;-76
2023/07/21 03:18:20;;;;;;;2.43;1.83;;;;;;;17.47;nan;98952.72;4939743;28;20481;-77
2023/07/21 03:21:09;;;;;;;2.30;2.03;;;;;;;17.44;nan;98955.69;4939331;28;20478;-76
2023/07/21 03:23:34;;;;;;;4.90;2.30;;;;;;;17.44;nan;98966.31;4938577;28;20470;-77
2023/07/21 03:26:00;;;;;;;7.90;2.53;;;;;;;17.47;nan;98958.03;4923776;28;20211;-76
2023/07/21 03:28:29;;;;;;;2.30;2.10;;;;;;;17.51;nan;98952.41;4923569;28;20213;-76
2023/07/21 03:30:57;;;;;;;2.77;2.07;;;;;;;17.48;nan;98949.06;4934714;28;20528;-76
2023/07/21 03:33:23;;;;;;;2.43;1.90;;;;;;;17.44;nan;98952.19;4936163;28;20300;-76
2023/07/21 03:36:01;;;;;;;6.10;2.60;;;;;;;17.46;nan;98956.34;4936394;28;20475;-76
2023/07/21 03:38:27;;;;;;;7.03;2.73;;;;;;;17.53;nan;98959.22;4921436;28;20466;-76
2023/07/21 03:41:04;;;;;;;5.90;2.50;;;;;;;17.59;nan;98961.25;4933352;28;20824;-76
2023/07/21 03:43:32;;;;;;;2.37;2.17;;;;;;;17.64;nan;98960.78;4937876;28;21264;-76
2023/07/21 03:45:59;;;;;;;2.40;2.20;;;;;;;17.71;nan;98956.47;4932309;28;20504;-76
2023/07/21 03:48:28;;;;;;;2.80;1.97;;;;;;;17.78;nan;98956.69;4921098;28;20835;-76
2023/07/21 03:50:59;;;;;;;2.50;2.30;;;;;;;17.82;nan;98953.59;4921462;28;20490;-76
2023/07/21 03:53:26;;;;;;;5.10;2.90;;;;;;;17.87;nan;98955.75;4937110;28;20467;-77
2023/07/21 03:55:52;;;;;;;2.20;2.00;;;;;;;17.89;nan;98959.91;4938007;28;20511;-76
2023/07/21 03:58:17;;;;;;;3.70;2.23;;;;;;;17.92;nan;98958.75;4942423;28;20468;-76
2023/07/21 04:00:42;;;;;;;3.70;2.67;;;;;;;17.95;nan;98958.44;4941094;28;20260;-78
2023/07/21 04:03:09;;;;;;;3.20;2.20;;;;;;;17.97;nan;98959.09;4928750;28;20276;-79
2023/07/21 04:05:34;;;;;;;3.27;2.60;;;;;;;17.99;nan;98953.66;4925135;28;20207;-79
2023/07/21 04:08:00;;;;;;;3.07;1.93;;;;;;;17.98;nan;98959.94;4944030;28;20491;-79
2023/07/21 04:10:25;;;;;;;3.43;2.53;;;;;;;17.94;nan;98954.13;4941238;28;20218;-79
2023/07/21 04:12:50;;;;;;;3.33;1.97;;;;;;;17.91;nan;98951.78;4926126;28;20229;-79
2023/07/21 04:15:16;;;;;;;3.43;3.13;;;;;;;17.92;nan;98946.28;4925743;28;20207;-79
2023/07/21 04:17:41;;;;;;;2.60;2.07;;;;;;;17.96;nan;98944.16;4944928;28;20308;-78
2023/07/21 04:20:09;;;;;;;2.00;1.80;;;;;;;17.96;nan;98938.84;4944312;28;20229;-79
2023/07/21 04:22:36;;;;;;;2.83;2.17;;;;;;;17.96;nan;98930.88;4928049;28;20642;-79
2023/07/21 04:25:02;;;;;;;3.70;2.27;;;;;;;17.91;nan;98930.53;4945069;28;20452;-78
2023/07/21 04:27:30;;;;;;;3.10;2.30;;;;;;;17.80;nan;98934.31;4924002;28;20509;-79
2023/07/21 04:29:56;;;;;;;2.10;1.90;;;;;;;17.72;nan;98928.94;4928083;28;20837;-79
2023/07/21 04:32:22;;;;;;;3.20;2.37;;;;;;;17.66;nan;98948.16;4927303;28;20469;-79
2023/07/21 04:34:47;;;;;;;4.23;2.47;;;;;;;17.59;nan;98933.84;4943718;28;20244;-78
2023/07/21 04:37:13;;;;;;;2.90;2.40;;;;;;;17.57;nan;98946.44;4942348;28;20511;-78
2023/07/21 04:39:42;;;;;;;3.33;2.00;;;;;;;17.58;nan;98934.81;4943783;28;20263;-79
2023/07/21 04:42:09;;;;;;;3.20;2.03;;;;;;;17.64;nan;98932.38;4945275;28;20456;-78
2023/07/21 04:44:37;;;;;;;3.70;3.03;;;;;;;17.74;nan;98934.06;4934596;28;20498;-78
2023/07/21 04:47:05;;;;;;;3.93;2.13;;;;;;;17.85;nan;98937.31;4936589;28;20229;-79
2023/07/21 04:49:38;;;;;;;2.93;2.10;;;;;;;17.96;nan;98938.84;4937200;28;20510;-78
2023/07/21 04:52:03;;;;;;;2.43;2.00;;;;;;;18.05;nan;98937.88;4921668;28;20905;-79
2023/07/21 04:54:29;;;;;;;5.57;2.50;;;;;;;18.22;nan;98937.91;4938123;28;20205;-79
2023/07/21 04:56:54;;;;;;;2.73;2.20;;;;;;;18.37;nan;98938.94;4935358;28;21267;-78
2023/07/21 04:59:20;;;;;;;2.27;2.07;;;;;;;18.71;nan;98938.81;4938078;28;20709;-78
2023/07/21 05:01:46;;;;;;;2.30;2.10;;;;;;;19.09;nan;98938.31;4945179;28;20222;-78
2023/07/21 05:04:14;;;;;;;2.37;2.17;;;;;;;19.47;nan;98936.75;4946809;28;20615;-79
2023/07/21 05:06:43;;;;;;;2.80;2.50;;;;;;;19.92;nan;98929.09;4942249;28;20447;-78
2023/07/21 05:09:09;;;;;;;4.60;3.10;;;;;;;20.27;nan;98941.88;4939029;28;20792;-78
2023/07/21 05:11:36;;;;;;;2.83;2.17;;;;;;;20.67;nan;98931.97;4924930;28;20897;-78
2023/07/21 05:14:03;;;;;;;3.07;2.00;;;;;;;21.09;nan;98935.97;4940042;28;20545;-78
2023/07/21 05:16:55;;;;;;;3.77;2.00;;;;;;;21.59;nan;98933.63;4929344;28;20467;-78
2023/07/21 05:19:47;;;;;;;2.07;1.87;;;;;;;21.87;nan;98933.75;4938433;28;20454;-77
2023/07/21 05:22:38;;;;;;;3.20;2.03;;;;;;;22.15;nan;98939.25;4917699;28;20442;-77
2023/07/21 05:25:08;;;;;;;6.43;2.33;;;;;;;22.43;nan;98941.22;4941793;28;20435;-78
2023/07/21 05:27:37;;;;;;;3.40;2.10;;;;;;;22.74;nan;98946.28;4921282;28;20698;-78
2023/07/21 05:30:06;;;;;;;4.20;1.80;;;;;;;22.89;nan;98948.88;4937812;28;20452;-78
2023/07/21 05:32:35;;;;;;;4.13;2.10;;;;;;;22.87;nan;98945.53;4936150;28;20860;-78
2023/07/21 05:35:07;;;;;;;2.37;2.17;;;;;;;22.67;nan;98945.38;4942033;28;21103;-78
2023/07/21 05:37:33;;;;;;;3.10;2.03;;;;;;;22.33;nan;98954.09;4941740;28;20443;-78
2023/07/21 05:39:59;;;;;;;4.63;2.53;;;;;;;21.93;nan;98948.22;4941498;28;20431;-79
2023/07/21 05:42:26;;;;;;;3.30;2.40;;;;;;;21.51;nan;98976.47;4942489;28;20205;-77
2023/07/21 05:44:53;;;;;;;2.90;1.77;;;;;;;21.16;nan;98962.75;4928039;28;20501;-78
2023/07/21 05:47:19;;;;;;;2.28;1.58;;;;;;;20.92;nan;98966.47;4907469;28;1055789;-79
2023/07/21 05:49:49;;;;;;;3.40;2.40;;;;;;;20.70;nan;98973.50;4941455;28;20223;-78
2023/07/21 05:52:14;;;;;;;8.47;2.07;;;;;;;20.57;nan;98978.59;4924920;28;20473;-76
2023/07/21 05:54:43;;;;;;;2.57;2.23;;;;;;;20.48;nan;98986.63;4936597;28;20710;-77
2023/07/21 05:57:08;;;;;;;2.17;1.97;;;;;;;20.42;nan;98991.84;4941344;28;20475;-79
2023/07/21 05:59:37;;;;;;;3.10;2.80;;;;;;;20.33;nan;98988.38;4935705;28;20531;-81
2023/07/21 06:02:03;;;;;;;3.10;2.27;;;;;;;20.28;nan;98991.56;4936916;28;20492;-78
2023/07/21 06:04:34;;;;;;;3.00;2.70;;;;;;;20.24;nan;98989.41;4935261;28;20444;-79
2023/07/21 06:07:34;;;;;;;2.67;2.47;;;;;;;20.21;nan;98995.09;4913940;29;20494;-82
2023/07/21 06:10:35;;;;;;;4.77;2.90;;;;;;;20.18;nan;98993.63;4879509;29;20877;-81
2023/07/21 06:13:11;;;;;;;3.17;2.47;;;;;;;20.17;nan;98991.97;4919140;28;20452;-82
2023/07/21 06:16:07;;;;;;;3.00;2.13;;;;;;;20.27;nan;98986.41;4883784;28;20765;-82
2023/07/21 06:18:42;;;;;;;4.17;3.77;;;;;;;20.34;nan;98980.19;4937001;28;21025;-81
2023/07/21 06:21:07;;;;;;;4.10;2.60;;;;;;;20.41;nan;98968.81;4941815;28;20471;-78
2023/07/21 06:23:32;;;;;;;9.00;3.10;;;;;;;20.49;nan;98974.91;4940996;28;20433;-78
2023/07/21 06:25:58;;;;;;;4.40;2.40;;;;;;;20.74;nan;98974.81;4941004;28;20305;-80
2023/07/21 06:28:23;;;;;;;3.20;2.30;;;;;;;21.19;nan;98967.72;4936914;28;20334;-80
2023/07/21 06:30:49;;;;;;;4.63;2.10;;;;;;;21.73;nan;98964.84;4936871;28;20218;-78
2023/07/21 06:33:37;;;;;;;3.50;2.60;;;;;;;22.26;nan;98968.22;4934451;28;20519;-78
2023/07/21 06:36:21;;;;;;;3.10;2.60;;;;;;;22.51;nan;98968.69;4937428;28;20528;-81
2023/07/21 06:39:09;;;;;;;3.17;2.43;;;;;;;22.52;nan;98974.88;4935417;28;20199;-82
2023/07/21 06:41:55;;;;;;;2.47;2.27;;;;;;;22.73;nan;98972.19;4938322;28;20481;-80
2023/07/21 06:44:46;;;;;;;2.23;2.03;;;;;;;23.34;nan;98969.03;4937016;28;20449;-81
2023/07/21 06:47:28;;;;;;;3.93;2.03;;;;;;;24.08;nan;98965.75;4935728;28;20558;-81
2023/07/21 06:50:12;;;;;;;2.77;2.50;;;;;;;24.77;nan;98973.81;4934217;28;20805;-78
2023/07/21 06:52:42;;;;;;;4.40;2.40;;;;;;;25.23;nan;98973.03;4939041;28;20418;-78
2023/07/21 06:55:08;;;;;;;2.43;2.23;;;;;;;25.65;nan;98960.13;4943836;28;20486;-80
2023/07/21 06:57:34;;;;;;;3.67;2.30;;;;;;;26.07;nan;98953.38;4929236;28;20192;-81
2023/07/21 06:59:59;;;;;;;2.57;2.37;;;;;;;26.44;nan;98940.16;4941793;28;20459;-80
2023/07/21 07:02:25;;;;;;;2.63;2.30;;;;;;;26.78;nan;98936.19;4939608;28;20202;-81
2023/07/21 07:04:53;;;;;;;3.33;2.40;;;;;;;27.18;nan;98933.19;4944958;28;20191;-78
2023/07/21 07:07:19;;;;;;;2.27;1.93;;;;;;;27.47;nan;98934.38;4941141;28;20425;-77
2023/07/21 07:09:44;;;;;;;2.87;2.40;;;;;;;27.89;nan;98929.13;4943176;28;20826;-77
2023/07/21 07:12:10;;;;;;;2.40;2.20;;;;;;;28.33;nan;98940.63;4939997;28;20873;-82
2023/07/21 07:14:36;;;;;;;3.70;1.67;;;;;;;28.36;nan;98933.94;4943417;28;20200;-81
2023/07/21 07:17:01;;;;;;;3.70;3.00;;;;;;;28.18;nan;98938.31;4941509;28;20559;-80
2023/07/21 07:19:28;;;;;;;2.60;1.67;;;;;;;28.28;nan;98936.97;4943721;28;21011;-77
2023/07/21 07:21:54;;;;;;;2.33;1.93;;;;;;;28.56;nan;98937.19;4943329;28;21091;-81
2023/07/21 07:24:20;;;;;;;4.13;2.23;;;;;;;28.62;nan;98932.72;4941658;28;20577;-77
2023/07/21 07:26:47;;;;;;;2.93;2.10;;;;;;;28.27;nan;98935.28;4935828;28;20295;-78
2023/07/21 07:29:15;;;;;;;3.57;2.80;;;;;;;28.03;nan;98935.22;4944522;28;20575;-81
2023/07/21 07:31:41;;;;;;;2.57;1.60;;;;;;;28.13;nan;98934.66;4941087;28;20216;-77
2023/07/21 07:34:07;;;;;;;2.80;1.53;;;;;;;28.42;nan;98938.41;4924107;28;20458;-82
2023/07/21 07:36:32;;;;;;;3.70;1.70;;;;;;;28.78;nan;98932.03;4944526;28;20831;-81
2023/07/21 07:38:57;;;;;;;4.33;2.33;;;;;;;29.31;nan;98933.06;4945717;28;20203;-78
2023/07/21 07:41:23;;;;;;;1.73;1.40;;;;;;;29.53;nan;98930.56;4940476;28;20208;-81
2023/07/21 07:43:48;;;;;;;1.77;1.47;;;;;;;29.49;nan;98930.22;4943620;28;20409;-81
2023/07/21 07:46:14;;;;;;;3.00;1.70;;;;;;;29.16;nan;98933.53;4944092;28;20204;-79
2023/07/21 07:48:39;;;;;;;2.70;2.10;;;;;;;29.18;nan;98936.81;4943273;28;20286;-80
2023/07/21 07:53:46;;;;;;;6.00;1.70;;;;;;;29.35;nan;98942.34;3292198;26;20223;-79
2023/07/21 07:56:15;;;;;;;2.70;1.20;;;;;;;29.15;nan;98942.72;4959128;28;20463;-80
2023/07/21 07:58:41;;;;;;;4.50;1.93;;;;;;;28.99;nan;98944.19;4959928;28;20196;-81
2023/07/21 08:01:07;;;;;;;5.77;1.87;;;;;;;29.12;nan;98943.19;4958759;28;20462;-82
2023/07/21 08:03:32;;;;;;;4.10;2.03;;;;;;;29.24;nan;98949.41;4957462;28;20471;-81
2023/07/21 08:05:59;;;;;;;2.57;1.60;;;;;;;29.43;nan;98935.75;4959351;28;20207;-82
2023/07/21 08:08:24;;;;;;;2.37;1.73;;;;;;;29.54;nan;98943.03;4955927;28;20235;-78
2023/07/21 08:10:50;;;;;;;2.80;1.60;;;;;;;29.53;nan;98934.09;4956415;28;20843;-82
2023/07/21 08:13:15;;;;;;;5.77;2.03;;;;;;;29.30;nan;98939.53;4960486;28;20312;-82
2023/07/21 08:15:42;;;;;;;2.63;1.40;;;;;;;28.89;nan;98935.81;4960065;28;20226;-78
2023/07/21 08:18:09;;;;;;;2.10;1.90;;;;;;;28.47;nan;98935.88;4959765;28;20736;-80
2023/07/21 08:20:39;;;;;;;2.53;1.57;;;;;;;28.01;nan;98937.31;4957465;28;20931;-79
2023/07/21 08:23:05;;;;;;;2.63;2.07;;;;;;;27.62;nan;98933.16;4960650;28;20526;-81
2023/07/21 08:25:31;;;;;;;3.57;1.60;;;;;;;27.43;nan;98930.44;4957957;28;20685;-81
2023/07/21 08:27:58;;;;;;;3.80;1.57;;;;;;;27.25;nan;98933.16;4961204;28;20232;-81
2023/07/21 08:30:24;;;;;;;2.23;1.40;;;;;;;27.17;nan;98930.72;4958657;28;20760;-80
2023/07/21 08:32:49;;;;;;;2.40;1.40;;;;;;;27.20;nan;98931.09;4960624;28;20558;-81
2023/07/21 08:35:15;;;;;;;2.63;1.40;;;;;;;27.25;nan;98933.97;4960873;28;20187;-78
2023/07/21 08:37:40;;;;;;;3.70;1.80;;;;;;;27.27;nan;98918.38;4963894;28;20275;-82
2023/07/21 08:40:07;;;;;;;2.43;1.63;;;;;;;27.34;nan;98921.84;4960019;28;20784;-78
2023/07/21 08:42:34;;;;;;;1.70;1.60;;;;;;;27.51;nan;98915.84;4960282;28;20207;-81
2023/07/21 08:45:00;;;;;;;1.80;1.57;;;;;;;27.72;nan;98909.19;4959599;28;20471;-81
2023/07/21 08:47:25;;;;;;;2.20;1.93;;;;;;;27.96;nan;98907.47;4959235;28;20864;-78
2023/07/21 08:49:51;;;;;;;2.47;1.67;;;;;;;28.18;nan;98910.50;4941271;28;20479;-78
2023/07/21 08:52:17;;;;;;;2.03;1.77;;;;;;;28.18;nan;98905.09;4959699;28;20239;-81
2023/07/21 08:54:43;;;;;;;2.60;1.60;;;;;;;28.10;nan;98906.22;4960215;28;20945;-78
2023/07/21 08:57:11;;;;;;;3.00;2.00;;;;;;;28.07;nan;98903.97;4959458;28;20630;-79
2023/07/21 08:59:37;;;;;;;2.67;1.60;;;;;;;28.22;nan;98903.59;4959714;28;20482;-77
2023/07/21 09:02:02;;;;;;;3.30;1.70;;;;;;;28.31;nan;98907.59;4960386;28;20563;-80
2023/07/21 09:04:28;;;;;;;1.63;1.53;;;;;;;28.53;nan;98907.91;4959522;28;20838;-80
2023/07/21 09:06:59;;;;;;;2.90;1.70;;;;;;;28.65;nan;98906.09;4958403;28;20437;-79
2023/07/21 09:09:26;;;;;;;2.67;1.67;;;;;;;28.76;nan;98907.16;4959448;28;20251;-80
2023/07/21 09:12:02;;;;;;;1.60;1.50;;;;;;;28.61;nan;98902.19;4958233;28;20471;-81
2023/07/21 09:14:54;;;;;;;1.93;1.30;;;;;;;28.35;nan;98916.88;4960247;28;20467;-79
2023/07/21 09:17:19;;;;;;;1.67;1.40;;;;;;;28.29;nan;98914.28;4955758;28;20829;-79
2023/07/21 09:19:45;;;;;;;2.00;1.43;;;;;;;28.32;nan;98913.81;4960964;28;20485;-78
2023/07/21 09:22:11;;;;;;;4.63;1.87;;;;;;;28.31;nan;98921.09;4959066;28;20257;-78
2023/07/21 09:24:49;;;;;;;1.60;1.40;;;;;;;28.39;nan;98918.06;4960183;28;20629;-81
2023/07/21 09:27:16;;;;;;;3.90;1.70;;;;;;;28.58;nan;98920.75;4959454;28;20457;-81
2023/07/21 09:29:42;;;;;;;2.97;1.63;;;;;;;28.69;nan;98919.94;4955313;28;20484;-78
2023/07/21 09:32:19;;;;;;;3.03;1.60;;;;;;;28.73;nan;98931.09;4955059;28;20464;-81
2023/07/21 09:35:00;;;;;;;2.63;1.50;;;;;;;28.67;nan;98930.97;4957298;28;20457;-78
2023/07/21 09:37:27;;;;;;;1.87;1.60;;;;;;;28.59;nan;98936.72;4957270;28;20516;-80
2023/07/21 09:39:57;;;;;;;2.40;1.50;;;;;;;28.52;nan;98941.41;4957622;28;20587;-82
2023/07/21 09:42:24;;;;;;;3.00;1.47;;;;;;;28.49;nan;98928.38;4959825;28;20466;-80
2023/07/21 09:44:51;;;;;;;2.60;1.60;;;;;;;28.34;nan;98920.63;4944664;28;21248;-81
2023/07/21 09:47:17;;;;;;;1.40;1.30;;;;;;;28.17;nan;98931.28;4961726;28;20449;-82
2023/07/21 09:49:43;;;;;;;2.60;1.77;;;;;;;28.14;nan;98929.03;4962952;28;20487;-78
2023/07/21 09:52:17;;;;;;;1.60;1.47;;;;;;;28.16;nan;98929.59;4962770;28;20450;-77
2023/07/21 09:54:45;;;;;;;1.60;1.43;;;;;;;28.26;nan;98939.88;4961032;28;21005;-79
2023/07/21 09:57:18;;;;;;;2.07;1.40;;;;;;;28.42;nan;98936.53;4962142;28;20533;-79
2023/07/21 09:59:48;;;;;;;1.83;1.60;;;;;;;28.46;nan;98942.31;4962472;28;20862;-81
2023/07/21 10:02:15;;;;;;;2.07;1.70;;;;;;;28.42;nan;98944.63;4962165;28;20541;-81
2023/07/21 10:04:42;;;;;;;1.90;1.10;;;;;;;28.38;nan;98950.72;4961784;28;20444;-80
2023/07/21 10:07:09;;;;;;;1.90;1.70;;;;;;;28.27;nan;98941.50;4961609;28;20200;-79
2023/07/21 10:09:36;;;;;;;2.27;1.20;;;;;;;28.09;nan;98949.66;4961950;28;20483;-80
2023/07/21 10:12:16;;;;;;;1.50;1.30;;;;;;;27.90;nan;98954.25;4960923;28;20982;-80
2023/07/21 10:14:42;;;;;;;1.60;1.50;;;;;;;27.70;nan;98946.34;4960774;28;21054;-78
2023/07/21 10:17:08;;;;;;;2.93;1.30;;;;;;;27.50;nan;98942.00;4962532;28;20467;-81
2023/07/21 10:19:42;;;;;;;1.37;1.27;;;;;;;27.34;nan;98951.50;4960611;28;20454;-82
2023/07/21 10:22:14;;;;;;;2.57;1.27;;;;;;;27.20;nan;98946.47;4962606;28;20704;-81
2023/07/21 10:24:45;;;;;;;1.43;1.30;;;;;;;27.11;nan;98949.41;4959312;28;20452;-82
2023/07/21 10:27:19;;;;;;;2.37;1.50;;;;;;;27.09;nan;98954.19;4965071;28;20460;-82
2023/07/21 10:29:44;;;;;;;3.37;1.33;;;;;;;27.01;nan;98951.78;4962557;28;20482;-82
2023/07/21 10:32:10;;;;;;;5.03;1.20;;;;;;;26.95;nan;98951.81;4962982;28;20471;-79
2023/07/21 10:34:42;;;;;;;1.50;1.40;;;;;;;26.85;nan;98960.41;4962221;28;20689;-82
2023/07/21 10:37:08;;;;;;;2.50;1.30;;;;;;;26.79;nan;98963.94;4961675;28;20204;-82
2023/07/21 10:39:42;;;;;;;1.40;1.23;;;;;;;26.72;nan;98965.91;4961927;28;20448;-82
2023/07/21 10:42:11;;;;;;;2.53;2.00;;;;;;;26.66;nan;98964.91;4962953;28;20458;-82
2023/07/21 10:44:54;;;;;;;4.27;1.60;;;;;;;26.61;nan;98962.84;4959536;28;20451;-82
2023/07/21 10:47:21;;;;;;;1.70;1.20;;;;;;;26.54;nan;98970.13;4959470;28;20506;-79
2023/07/21 10:49:48;;;;;;;1.80;1.30;;;;;;;26.44;nan;98965.19;4960722;28;21012;-81
2023/07/21 10:52:14;;;;;;;1.57;1.20;;;;;;;26.33;nan;98965.03;4959547;28;20464;-82
2023/07/21 10:54:40;;;;;;;2.13;1.10;;;;;;;26.23;nan;98970.91;4964144;28;20507;-80
2023/07/21 10:57:06;;;;;;;1.53;1.13;;;;;;;26.17;nan;98964.53;4964195;28;20470;-79
2023/07/21 10:59:34;;;;;;;2.87;1.43;;;;;;;26.18;nan;98971.53;4964899;28;20547;-82
2023/07/21 11:02:02;;;;;;;2.57;2.13;;;;;;;26.24;nan;98973.38;4961465;28;20486;-82
2023/07/21 11:04:28;;;;;;;4.20;2.00;;;;;;;26.35;nan;98971.03;4964024;28;20968;-81
2023/07/21 11:06:58;;;;;;;1.80;1.47;;;;;;;26.51;nan;98965.19;4961476;28;20586;-79
2023/07/21 11:09:25;;;;;;;1.97;1.30;;;;;;;26.70;nan;98969.59;4960656;28;20233;-81
2023/07/21 11:11:54;;;;;;;1.73;1.33;;;;;;;26.89;nan;98962.44;4962615;28;20836;-82
2023/07/21 11:14:25;;;;;;;2.33;1.53;;;;;;;27.08;nan;98967.88;4962057;28;20451;-81
2023/07/21 11:17:01;;;;;;;1.93;1.37;;;;;;;27.31;nan;98968.13;4961770;28;20459;-79
2023/07/21 11:19:28;;;;;;;1.93;1.30;;;;;;;27.64;nan;98958.06;4961106;28;20447;-80
2023/07/21 11:21:54;;;;;;;2.77;1.60;;;;;;;27.87;nan;98963.63;4962526;28;20829;-80
2023/07/21 11:24:25;;;;;;;2.60;1.50;;;;;;;28.04;nan;98961.13;4961020;28;20746;-81
2023/07/21 11:26:53;;;;;;;2.50;2.13;;;;;;;28.24;nan;98952.78;4960748;28;20460;-79
2023/07/21 11:29:20;;;;;;;2.57;1.40;;;;;;;28.40;nan;98957.53;4961124;28;20521;-81
2023/07/21 11:31:45;;;;;;;2.00;1.50;;;;;;;28.42;nan;98960.84;4961419;28;20481;-80
2023/07/21 11:34:18;;;;;;;4.37;1.87;;;;;;;28.29;nan;98968.28;4961663;28;20478;-80
2023/07/21 11:36:44;;;;;;;1.70;1.20;;;;;;;28.23;nan;98973.56;4959481;28;20494;-78
2023/07/21 11:39:14;;;;;;;1.53;1.40;;;;;;;28.15;nan;98981.16;4962970;28;21078;-82
2023/07/21 11:41:40;;;;;;;1.77;1.53;;;;;;;28.05;nan;98987.06;4960375;28;20734;-81
2023/07/21 11:44:16;;;;;;;3.47;1.90;;;;;;;27.92;nan;98982.69;4961448;28;20538;-78
2023/07/21 11:46:42;;;;;;;2.87;1.73;;;;;;;27.86;nan;98988.13;4960107;28;20391;-81
2023/07/21 11:49:14;;;;;;;2.00;1.60;;;;;;;27.79;nan;98993.59;4963776;28;21040;-81
2023/07/21 11:51:48;;;;;;;1.50;1.37;;;;;;;27.68;nan;98992.47;4958864;28;20230;-80
2023/07/21 11:54:25;;;;;;;1.40;1.30;;;;;;;27.50;nan;98995.13;4958010;28;21147;-79
2023/07/21 11:56:52;;;;;;;1.83;1.43;;;;;;;27.38;nan;99003.09;4959989;28;20985;-82
2023/07/21 11:59:18;;;;;;;2.20;1.73;;;;;;;27.41;nan;98997.31;4976258;23;21377;-76
2023/07/21 12:01:45;;;;;;;2.53;1.57;;;;;;;27.49;nan;98998.84;4940292;28;20774;-77